sensor_id;sensor_type;location;lat;lon;timestamp;temperature;humidity
71177;DHT22;58877;51.992;4.504;2023-04-24T00:00:30;10.43;91.55
71177;DHT22;58877;51.992;4.504;2023-04-24T00:02:56;10.39;91.78
71177;DHT22;58877;51.992;4.504;2023-04-24T00:05:23;10.44;91.56
71177;DHT22;58877;51.992;4.504;2023-04-24T00:07:49;10.33;91.66
71177;DHT22;58877;51.992;4.504;2023-04-24T00:10:18;10.33;91.78
71177;DHT22;58877;51.992;4.504;2023-04-24T00:12:44;10.40;91.92
71177;DHT22;58877;51.992;4.504;2023-04-24T00:15:10;10.47;91.60
71177;DHT22;58877;51.992;4.504;2023-04-24T00:17:36;10.47;91.46
71177;DHT22;58877;51.992;4.504;2023-04-24T00:20:02;10.50;91.72
71177;DHT22;58877;51.992;4.504;2023-04-24T00:22:30;10.50;91.67
71177;DHT22;58877;51.992;4.504;2023-04-24T00:24:56;10.43;91.55
71177;DHT22;58877;51.992;4.504;2023-04-24T00:27:22;10.34;91.43
71177;DHT22;58877;51.992;4.504;2023-04-24T00:29:48;10.37;91.69
71177;DHT22;58877;51.992;4.504;2023-04-24T00:32:14;10.33;91.61
71177;DHT22;58877;51.992;4.504;2023-04-24T00:34:40;10.27;91.64
71177;DHT22;58877;51.992;4.504;2023-04-24T00:37:06;10.20;91.86
71177;DHT22;58877;51.992;4.504;2023-04-24T00:39:32;10.17;91.95
71177;DHT22;58877;51.992;4.504;2023-04-24T00:41:58;10.29;91.83
71177;DHT22;58877;51.992;4.504;2023-04-24T00:44:24;10.32;91.71
71177;DHT22;58877;51.992;4.504;2023-04-24T00:46:54;10.24;91.76
71177;DHT22;58877;51.992;4.504;2023-04-24T00:49:23;10.20;91.77
71177;DHT22;58877;51.992;4.504;2023-04-24T00:51:49;10.14;92.02
71177;DHT22;58877;51.992;4.504;2023-04-24T00:54:17;10.12;92.04
71177;DHT22;58877;51.992;4.504;2023-04-24T00:56:46;10.06;92.18
71177;DHT22;58877;51.992;4.504;2023-04-24T00:59:14;10.09;91.91
71177;DHT22;58877;51.992;4.504;2023-04-24T01:01:41;10.12;92.10
71177;DHT22;58877;51.992;4.504;2023-04-24T01:04:08;10.12;91.87
71177;DHT22;58877;51.992;4.504;2023-04-24T01:06:39;10.03;91.40
71177;DHT22;58877;51.992;4.504;2023-04-24T01:09:05;10.05;91.57
71177;DHT22;58877;51.992;4.504;2023-04-24T01:11:31;10.06;91.46
71177;DHT22;58877;51.992;4.504;2023-04-24T01:13:56;10.06;91.41
71177;DHT22;58877;51.992;4.504;2023-04-24T01:16:22;10.10;91.53
71177;DHT22;58877;51.992;4.504;2023-04-24T01:18:48;10.29;91.27
71177;DHT22;58877;51.992;4.504;2023-04-24T01:21:15;10.21;91.11
71177;DHT22;58877;51.992;4.504;2023-04-24T01:26:09;10.13;91.22
71177;DHT22;58877;51.992;4.504;2023-04-24T01:28:35;10.13;91.22
71177;DHT22;58877;51.992;4.504;2023-04-24T01:31:02;10.13;90.93
71177;DHT22;58877;51.992;4.504;2023-04-24T01:33:27;10.02;90.90
71177;DHT22;58877;51.992;4.504;2023-04-24T01:35:53;9.99;90.94
71177;DHT22;58877;51.992;4.504;2023-04-24T01:38:19;9.99;90.94
71177;DHT22;58877;51.992;4.504;2023-04-24T01:40:45;9.95;90.94
71177;DHT22;58877;51.992;4.504;2023-04-24T01:43:12;10.05;91.26
71177;DHT22;58877;51.992;4.504;2023-04-24T01:45:38;9.95;91.07
71177;DHT22;58877;51.992;4.504;2023-04-24T01:48:04;9.93;91.31
71177;DHT22;58877;51.992;4.504;2023-04-24T01:50:29;9.93;91.21
71177;DHT22;58877;51.992;4.504;2023-04-24T01:52:55;10.02;91.38
71177;DHT22;58877;51.992;4.504;2023-04-24T01:55:21;10.02;91.09
71177;DHT22;58877;51.992;4.504;2023-04-24T01:57:47;10.02;91.11
71177;DHT22;58877;51.992;4.504;2023-04-24T02:00:13;10.14;91.02
71177;DHT22;58877;51.992;4.504;2023-04-24T02:02:40;10.12;90.94
71177;DHT22;58877;51.992;4.504;2023-04-24T02:05:07;10.16;90.74
71177;DHT22;58877;51.992;4.504;2023-04-24T02:07:33;10.19;90.76
71177;DHT22;58877;51.992;4.504;2023-04-24T02:09:58;10.21;90.47
71177;DHT22;58877;51.992;4.504;2023-04-24T02:12:24;10.14;90.35
71177;DHT22;58877;51.992;4.504;2023-04-24T02:14:50;10.09;90.64
71177;DHT22;58877;51.992;4.504;2023-04-24T02:17:16;10.09;90.86
71177;DHT22;58877;51.992;4.504;2023-04-24T02:19:42;10.05;90.95
71177;DHT22;58877;51.992;4.504;2023-04-24T02:22:07;10.07;91.04
71177;DHT22;58877;51.992;4.504;2023-04-24T02:24:33;10.14;90.84
71177;DHT22;58877;51.992;4.504;2023-04-24T02:26:58;10.09;90.96
71177;DHT22;58877;51.992;4.504;2023-04-24T02:29:24;9.97;91.02
71177;DHT22;58877;51.992;4.504;2023-04-24T02:31:50;9.96;91.38
71177;DHT22;58877;51.992;4.504;2023-04-24T02:34:15;9.99;91.51
71177;DHT22;58877;51.992;4.504;2023-04-24T02:36:41;10.03;91.52
71177;DHT22;58877;51.992;4.504;2023-04-24T02:39:07;10.05;91.43
71177;DHT22;58877;51.992;4.504;2023-04-24T02:41:33;10.00;91.50
71177;DHT22;58877;51.992;4.504;2023-04-24T02:43:59;9.90;91.22
71177;DHT22;58877;51.992;4.504;2023-04-24T02:46:26;9.79;91.05
71177;DHT22;58877;51.992;4.504;2023-04-24T02:48:51;9.75;91.02
71177;DHT22;58877;51.992;4.504;2023-04-24T02:51:17;9.76;91.00
71177;DHT22;58877;51.992;4.504;2023-04-24T02:53:42;9.78;90.98
71177;DHT22;58877;51.992;4.504;2023-04-24T02:56:08;9.75;90.55
71177;DHT22;58877;51.992;4.504;2023-04-24T02:58:33;9.62;89.71
71177;DHT22;58877;51.992;4.504;2023-04-24T03:00:59;9.59;90.34
71177;DHT22;58877;51.992;4.504;2023-04-24T03:03:25;9.59;90.39
71177;DHT22;58877;51.992;4.504;2023-04-24T03:05:51;9.61;90.58
71177;DHT22;58877;51.992;4.504;2023-04-24T03:08:17;9.59;90.74
71177;DHT22;58877;51.992;4.504;2023-04-24T03:10:43;9.58;90.94
71177;DHT22;58877;51.992;4.504;2023-04-24T03:13:08;9.55;91.01
71177;DHT22;58877;51.992;4.504;2023-04-24T03:15:34;9.61;91.14
71177;DHT22;58877;51.992;4.504;2023-04-24T03:17:59;9.62;91.34
71177;DHT22;58877;51.992;4.504;2023-04-24T03:20:26;9.61;91.36
71177;DHT22;58877;51.992;4.504;2023-04-24T03:22:51;9.62;91.39
71177;DHT22;58877;51.992;4.504;2023-04-24T03:25:17;9.68;91.28
71177;DHT22;58877;51.992;4.504;2023-04-24T03:27:43;9.76;91.37
71177;DHT22;58877;51.992;4.504;2023-04-24T03:30:08;9.86;91.06
71177;DHT22;58877;51.992;4.504;2023-04-24T03:32:34;9.90;90.77
71177;DHT22;58877;51.992;4.504;2023-04-24T03:35:00;9.81;90.71
71177;DHT22;58877;51.992;4.504;2023-04-24T03:37:26;9.85;90.64
71177;DHT22;58877;51.992;4.504;2023-04-24T03:39:52;9.95;90.44
71177;DHT22;58877;51.992;4.504;2023-04-24T03:42:17;10.03;90.14
71177;DHT22;58877;51.992;4.504;2023-04-24T03:44:43;10.14;90.00
71177;DHT22;58877;51.992;4.504;2023-04-24T03:47:09;10.21;89.31
71177;DHT22;58877;51.992;4.504;2023-04-24T03:49:34;10.43;89.34
71177;DHT22;58877;51.992;4.504;2023-04-24T03:52:00;10.51;88.52
71177;DHT22;58877;51.992;4.504;2023-04-24T03:54:27;10.51;88.00
71177;DHT22;58877;51.992;4.504;2023-04-24T03:56:53;10.47;88.20
71177;DHT22;58877;51.992;4.504;2023-04-24T03:59:19;10.54;88.28
71177;DHT22;58877;51.992;4.504;2023-04-24T04:01:44;10.56;88.15
71177;DHT22;58877;51.992;4.504;2023-04-24T04:04:11;10.59;87.72
71177;DHT22;58877;51.992;4.504;2023-04-24T04:06:37;10.37;88.39
71177;DHT22;58877;51.992;4.504;2023-04-24T04:09:02;10.30;88.95
71177;DHT22;58877;51.992;4.504;2023-04-24T04:11:28;10.21;89.30
71177;DHT22;58877;51.992;4.504;2023-04-24T04:13:54;10.24;89.45
71177;DHT22;58877;51.992;4.504;2023-04-24T04:16:20;10.17;89.32
71177;DHT22;58877;51.992;4.504;2023-04-24T04:18:49;10.02;90.07
71177;DHT22;58877;51.992;4.504;2023-04-24T04:21:15;10.06;90.13
71177;DHT22;58877;51.992;4.504;2023-04-24T04:23:41;10.10;90.26
71177;DHT22;58877;51.992;4.504;2023-04-24T04:26:07;9.92;90.87
71177;DHT22;58877;51.992;4.504;2023-04-24T04:28:33;9.79;91.81
71177;DHT22;58877;51.992;4.504;2023-04-24T04:30:58;9.75;92.23
71177;DHT22;58877;51.992;4.504;2023-04-24T04:33:27;9.72;92.27
71177;DHT22;58877;51.992;4.504;2023-04-24T04:35:53;9.75;92.46
71177;DHT22;58877;51.992;4.504;2023-04-24T04:38:19;9.72;92.43
71177;DHT22;58877;51.992;4.504;2023-04-24T04:40:45;9.65;92.49
71177;DHT22;58877;51.992;4.504;2023-04-24T04:43:11;9.61;92.49
71177;DHT22;58877;51.992;4.504;2023-04-24T04:45:38;9.55;92.44
71177;DHT22;58877;51.992;4.504;2023-04-24T04:48:05;9.54;92.58
71177;DHT22;58877;51.992;4.504;2023-04-24T04:50:33;9.42;92.26
71177;DHT22;58877;51.992;4.504;2023-04-24T04:52:58;9.42;92.39
71177;DHT22;58877;51.992;4.504;2023-04-24T04:55:24;9.46;92.33
71177;DHT22;58877;51.992;4.504;2023-04-24T04:57:50;9.38;92.10
71177;DHT22;58877;51.992;4.504;2023-04-24T05:00:19;9.24;92.37
71177;DHT22;58877;51.992;4.504;2023-04-24T05:02:45;9.11;92.56
71177;DHT22;58877;51.992;4.504;2023-04-24T05:05:10;9.10;92.45
71177;DHT22;58877;51.992;4.504;2023-04-24T05:07:36;9.01;92.12
71177;DHT22;58877;51.992;4.504;2023-04-24T05:10:02;9.04;92.36
71177;DHT22;58877;51.992;4.504;2023-04-24T05:12:28;9.05;91.80
71177;DHT22;58877;51.992;4.504;2023-04-24T05:14:54;9.03;91.78
71177;DHT22;58877;51.992;4.504;2023-04-24T05:17:19;9.05;91.94
71177;DHT22;58877;51.992;4.504;2023-04-24T05:19:45;9.14;92.04
71177;DHT22;58877;51.992;4.504;2023-04-24T05:22:11;9.03;92.34
71177;DHT22;58877;51.992;4.504;2023-04-24T05:24:37;9.01;92.18
71177;DHT22;58877;51.992;4.504;2023-04-24T05:27:03;9.05;92.14
71177;DHT22;58877;51.992;4.504;2023-04-24T05:29:33;9.03;91.75
71177;DHT22;58877;51.992;4.504;2023-04-24T05:31:59;9.04;91.62
71177;DHT22;58877;51.992;4.504;2023-04-24T05:34:25;8.92;91.13
71177;DHT22;58877;51.992;4.504;2023-04-24T05:36:51;8.94;90.85
71177;DHT22;58877;51.992;4.504;2023-04-24T05:39:17;8.92;91.01
71177;DHT22;58877;51.992;4.504;2023-04-24T05:41:43;8.91;90.52
71177;DHT22;58877;51.992;4.504;2023-04-24T05:44:09;8.99;90.53
71177;DHT22;58877;51.992;4.504;2023-04-24T05:46:35;8.94;90.33
71177;DHT22;58877;51.992;4.504;2023-04-24T05:49:01;8.94;90.55
71177;DHT22;58877;51.992;4.504;2023-04-24T05:51:28;8.99;90.24
71177;DHT22;58877;51.992;4.504;2023-04-24T05:53:54;9.05;90.42
71177;DHT22;58877;51.992;4.504;2023-04-24T05:56:20;9.10;90.57
71177;DHT22;58877;51.992;4.504;2023-04-24T05:58:46;9.14;90.66
71177;DHT22;58877;51.992;4.504;2023-04-24T06:01:13;9.05;90.42
71177;DHT22;58877;51.992;4.504;2023-04-24T06:03:42;9.04;90.81
71177;DHT22;58877;51.992;4.504;2023-04-24T06:06:09;9.03;90.66
71177;DHT22;58877;51.992;4.504;2023-04-24T06:08:35;8.96;90.44
71177;DHT22;58877;51.992;4.504;2023-04-24T06:11:04;8.99;90.20
71177;DHT22;58877;51.992;4.504;2023-04-24T06:13:29;8.94;90.11
71177;DHT22;58877;51.992;4.504;2023-04-24T06:15:55;9.00;90.26
71177;DHT22;58877;51.992;4.504;2023-04-24T06:18:24;8.99;90.07
71177;DHT22;58877;51.992;4.504;2023-04-24T06:20:50;9.03;90.02
71177;DHT22;58877;51.992;4.504;2023-04-24T06:23:22;8.94;89.41
71177;DHT22;58877;51.992;4.504;2023-04-24T06:25:48;9.01;89.71
71177;DHT22;58877;51.992;4.504;2023-04-24T06:28:15;9.01;89.72
71177;DHT22;58877;51.992;4.504;2023-04-24T06:30:41;8.94;89.04
71177;DHT22;58877;51.992;4.504;2023-04-24T06:33:06;9.03;88.85
71177;DHT22;58877;51.992;4.504;2023-04-24T06:35:32;9.07;88.38
71177;DHT22;58877;51.992;4.504;2023-04-24T06:37:58;9.08;88.52
71177;DHT22;58877;51.992;4.504;2023-04-24T06:40:24;9.15;88.52
71177;DHT22;58877;51.992;4.504;2023-04-24T06:42:52;9.14;87.80
71177;DHT22;58877;51.992;4.504;2023-04-24T06:45:18;9.17;88.29
71177;DHT22;58877;51.992;4.504;2023-04-24T06:47:43;9.12;87.84
71177;DHT22;58877;51.992;4.504;2023-04-24T06:50:09;9.14;88.02
71177;DHT22;58877;51.992;4.504;2023-04-24T06:52:35;9.20;87.57
71177;DHT22;58877;51.992;4.504;2023-04-24T06:55:02;9.22;87.21
71177;DHT22;58877;51.992;4.504;2023-04-24T06:57:29;9.21;87.39
71177;DHT22;58877;51.992;4.504;2023-04-24T06:59:55;9.12;86.85
71177;DHT22;58877;51.992;4.504;2023-04-24T07:02:20;9.18;86.57
71177;DHT22;58877;51.992;4.504;2023-04-24T07:04:46;9.18;86.57
71177;DHT22;58877;51.992;4.504;2023-04-24T07:07:13;9.10;87.11
71177;DHT22;58877;51.992;4.504;2023-04-24T07:09:40;9.14;87.79
71177;DHT22;58877;51.992;4.504;2023-04-24T07:12:12;9.05;87.68
71177;DHT22;58877;51.992;4.504;2023-04-24T07:14:39;8.99;87.55
71177;DHT22;58877;51.992;4.504;2023-04-24T07:17:07;8.97;87.10
71177;DHT22;58877;51.992;4.504;2023-04-24T07:19:34;9.08;87.28
71177;DHT22;58877;51.992;4.504;2023-04-24T07:22:03;9.12;86.27
71177;DHT22;58877;51.992;4.504;2023-04-24T07:24:29;9.15;86.38
71177;DHT22;58877;51.992;4.504;2023-04-24T07:26:57;9.30;86.33
71177;DHT22;58877;51.992;4.504;2023-04-24T07:29:23;9.17;84.81
71177;DHT22;58877;51.992;4.504;2023-04-24T07:31:49;9.24;83.85
71177;DHT22;58877;51.992;4.504;2023-04-24T07:34:15;9.15;82.62
71177;DHT22;58877;51.992;4.504;2023-04-24T07:36:41;9.17;82.47
71177;DHT22;58877;51.992;4.504;2023-04-24T07:39:10;9.21;82.30
71177;DHT22;58877;51.992;4.504;2023-04-24T07:41:36;9.18;82.31
71177;DHT22;58877;51.992;4.504;2023-04-24T07:44:08;9.24;82.15
71177;DHT22;58877;51.992;4.504;2023-04-24T07:46:33;9.32;82.42
71177;DHT22;58877;51.992;4.504;2023-04-24T07:48:59;9.35;82.55
71177;DHT22;58877;51.992;4.504;2023-04-24T07:51:26;9.36;82.08
71177;DHT22;58877;51.992;4.504;2023-04-24T07:53:56;9.39;81.94
71177;DHT22;58877;51.992;4.504;2023-04-24T07:56:22;9.34;82.23
71177;DHT22;58877;51.992;4.504;2023-04-24T07:58:47;9.44;81.71
71177;DHT22;58877;51.992;4.504;2023-04-24T08:01:13;9.34;80.26
71177;DHT22;58877;51.992;4.504;2023-04-24T08:03:39;9.32;79.47
71177;DHT22;58877;51.992;4.504;2023-04-24T08:06:05;9.34;78.71
71177;DHT22;58877;51.992;4.504;2023-04-24T08:08:33;9.15;78.03
71177;DHT22;58877;51.992;4.504;2023-04-24T08:10:59;9.30;78.73
71177;DHT22;58877;51.992;4.504;2023-04-24T08:13:25;9.28;79.16
71177;DHT22;58877;51.992;4.504;2023-04-24T08:16:05;9.32;79.58
71177;DHT22;58877;51.992;4.504;2023-04-24T08:21:39;9.39;78.49
71177;DHT22;58877;51.992;4.504;2023-04-24T08:38:47;9.41;73.59
71177;DHT22;58877;51.992;4.504;2023-04-24T08:41:45;9.45;75.07
71177;DHT22;58877;51.992;4.504;2023-04-24T08:44:39;9.21;75.79
71177;DHT22;58877;51.992;4.504;2023-04-24T08:47:07;9.08;74.84
71177;DHT22;58877;51.992;4.504;2023-04-24T08:49:36;9.20;75.62
71177;DHT22;58877;51.992;4.504;2023-04-24T08:52:02;9.15;74.64
71177;DHT22;58877;51.992;4.504;2023-04-24T08:54:32;9.31;74.83
71177;DHT22;58877;51.992;4.504;2023-04-24T08:57:03;9.51;74.77
71177;DHT22;58877;51.992;4.504;2023-04-24T08:59:33;9.41;74.34
71177;DHT22;58877;51.992;4.504;2023-04-24T09:01:59;9.28;73.60
71177;DHT22;58877;51.992;4.504;2023-04-24T09:04:27;9.22;75.25
71177;DHT22;58877;51.992;4.504;2023-04-24T09:06:57;9.15;76.51
71177;DHT22;58877;51.992;4.504;2023-04-24T09:09:32;9.21;78.06
71177;DHT22;58877;51.992;4.504;2023-04-24T09:11:58;9.22;78.85
71177;DHT22;58877;51.992;4.504;2023-04-24T09:14:27;9.00;79.41
71177;DHT22;58877;51.992;4.504;2023-04-24T09:16:53;9.20;79.64
71177;DHT22;58877;51.992;4.504;2023-04-24T09:19:18;9.25;77.99
71177;DHT22;58877;51.992;4.504;2023-04-24T09:21:47;9.44;78.19
71177;DHT22;58877;51.992;4.504;2023-04-24T09:24:21;9.55;78.53
71177;DHT22;58877;51.992;4.504;2023-04-24T09:26:56;9.58;77.54
71177;DHT22;58877;51.992;4.504;2023-04-24T09:29:29;9.58;76.91
71177;DHT22;58877;51.992;4.504;2023-04-24T09:31:55;9.66;76.01
71177;DHT22;58877;51.992;4.504;2023-04-24T09:34:26;9.86;76.08
71177;DHT22;58877;51.992;4.504;2023-04-24T09:36:54;10.03;76.05
71177;DHT22;58877;51.992;4.504;2023-04-24T09:39:19;10.24;74.54
71177;DHT22;58877;51.992;4.504;2023-04-24T09:41:55;10.24;74.09
71177;DHT22;58877;51.992;4.504;2023-04-24T09:44:27;10.03;73.52
71177;DHT22;58877;51.992;4.504;2023-04-24T09:46:57;10.19;74.68
71177;DHT22;58877;51.992;4.504;2023-04-24T09:49:27;9.97;75.27
71177;DHT22;58877;51.992;4.504;2023-04-24T09:54:29;9.99;75.40
71177;DHT22;58877;51.992;4.504;2023-04-24T09:56:55;9.86;75.26
71177;DHT22;58877;51.992;4.504;2023-04-24T09:59:22;9.65;74.84
71177;DHT22;58877;51.992;4.504;2023-04-24T10:01:48;9.58;74.70
71177;DHT22;58877;51.992;4.504;2023-04-24T10:04:16;9.59;75.44
71177;DHT22;58877;51.992;4.504;2023-04-24T10:06:43;9.75;75.52
71177;DHT22;58877;51.992;4.504;2023-04-24T10:09:16;9.44;73.97
71177;DHT22;58877;51.992;4.504;2023-04-24T10:11:46;9.52;74.91
71177;DHT22;58877;51.992;4.504;2023-04-24T10:14:20;9.63;73.77
71177;DHT22;58877;51.992;4.504;2023-04-24T10:16:47;9.71;74.42
71177;DHT22;58877;51.992;4.504;2023-04-24T10:19:16;9.75;75.32
71177;DHT22;58877;51.992;4.504;2023-04-24T10:21:44;9.62;77.27
71177;DHT22;58877;51.992;4.504;2023-04-24T10:24:18;9.54;77.58
71177;DHT22;58877;51.992;4.504;2023-04-24T10:26:45;9.44;78.58
71177;DHT22;58877;51.992;4.504;2023-04-24T10:29:13;9.30;77.93
71177;DHT22;58877;51.992;4.504;2023-04-24T10:31:40;9.38;78.00
71177;DHT22;58877;51.992;4.504;2023-04-24T10:34:09;9.45;77.96
71177;DHT22;58877;51.992;4.504;2023-04-24T10:36:40;9.54;78.17
71177;DHT22;58877;51.992;4.504;2023-04-24T10:39:10;9.59;79.49
71177;DHT22;58877;51.992;4.504;2023-04-24T10:41:40;9.69;79.94
71177;DHT22;58877;51.992;4.504;2023-04-24T10:44:07;9.74;80.70
71177;DHT22;58877;51.992;4.504;2023-04-24T10:46:34;9.89;79.23
71177;DHT22;58877;51.992;4.504;2023-04-24T10:49:04;9.78;78.59
71177;DHT22;58877;51.992;4.504;2023-04-24T10:51:45;9.97;77.11
71177;DHT22;58877;51.992;4.504;2023-04-24T10:54:45;10.03;75.52
71177;DHT22;58877;51.992;4.504;2023-04-24T10:59:48;9.96;75.43
71177;DHT22;58877;51.992;4.504;2023-04-24T11:02:15;9.96;74.87
71177;DHT22;58877;51.992;4.504;2023-04-24T11:04:41;9.90;75.72
71177;DHT22;58877;51.992;4.504;2023-04-24T11:07:13;10.10;75.82
71177;DHT22;58877;51.992;4.504;2023-04-24T11:09:41;10.12;73.99
71177;DHT22;58877;51.992;4.504;2023-04-24T11:12:10;10.49;74.18
71177;DHT22;58877;51.992;4.504;2023-04-24T11:15:09;10.33;70.45
71177;DHT22;58877;51.992;4.504;2023-04-24T11:17:38;10.32;69.86
71177;DHT22;58877;51.992;4.504;2023-04-24T11:20:07;10.59;70.20
71177;DHT22;58877;51.992;4.504;2023-04-24T11:22:37;11.21;69.44
71177;DHT22;58877;51.992;4.504;2023-04-24T11:25:04;10.95;67.43
71177;DHT22;58877;51.992;4.504;2023-04-24T11:27:32;10.82;67.93
71177;DHT22;58877;51.992;4.504;2023-04-24T11:30:01;10.82;67.79
71177;DHT22;58877;51.992;4.504;2023-04-24T11:32:38;11.07;67.93
71177;DHT22;58877;51.992;4.504;2023-04-24T11:35:22;10.74;66.90
71177;DHT22;58877;51.992;4.504;2023-04-24T11:37:52;10.77;68.90
71177;DHT22;58877;51.992;4.504;2023-04-24T11:40:20;11.01;67.66
71177;DHT22;58877;51.992;4.504;2023-04-24T11:42:49;10.88;68.08
71177;DHT22;58877;51.992;4.504;2023-04-24T11:45:21;10.71;68.44
71177;DHT22;58877;51.992;4.504;2023-04-24T11:47:47;10.63;68.31
71177;DHT22;58877;51.992;4.504;2023-04-24T11:50:33;10.82;68.26
71177;DHT22;58877;51.992;4.504;2023-04-24T11:52:59;10.85;67.90
71177;DHT22;58877;51.992;4.504;2023-04-24T11:55:27;10.61;69.55
71177;DHT22;58877;51.992;4.504;2023-04-24T11:57:58;10.87;70.17
71177;DHT22;58877;51.992;4.504;2023-04-24T12:00:26;11.04;69.53
71177;DHT22;58877;51.992;4.504;2023-04-24T12:03:04;10.95;68.46
71177;DHT22;58877;51.992;4.504;2023-04-24T12:05:30;11.18;70.12
71177;DHT22;58877;51.992;4.504;2023-04-24T12:07:56;10.65;68.10
71177;DHT22;58877;51.992;4.504;2023-04-24T12:10:24;10.77;68.61
71177;DHT22;58877;51.992;4.504;2023-04-24T12:12:51;10.82;68.94
71177;DHT22;58877;51.992;4.504;2023-04-24T12:15:18;10.30;70.91
71177;DHT22;58877;51.992;4.504;2023-04-24T12:17:45;9.69;74.88
71177;DHT22;58877;51.992;4.504;2023-04-24T12:20:32;9.14;74.15
71177;DHT22;58877;51.992;4.504;2023-04-24T12:23:34;9.22;76.15
71177;DHT22;58877;51.992;4.504;2023-04-24T12:26:03;9.31;77.49
71177;DHT22;58877;51.992;4.504;2023-04-24T12:28:36;9.35;77.36
71177;DHT22;58877;51.992;4.504;2023-04-24T12:31:02;9.63;79.03
71177;DHT22;58877;51.992;4.504;2023-04-24T12:33:33;9.58;78.75
71177;DHT22;58877;51.992;4.504;2023-04-24T12:35:59;9.89;79.95
71177;DHT22;58877;51.992;4.504;2023-04-24T12:38:26;9.86;77.86
71177;DHT22;58877;51.992;4.504;2023-04-24T12:41:07;10.19;76.91
71177;DHT22;58877;51.992;4.504;2023-04-24T12:43:33;10.16;73.92
71177;DHT22;58877;51.992;4.504;2023-04-24T12:45:59;10.44;73.27
71177;DHT22;58877;51.992;4.504;2023-04-24T12:48:29;10.61;72.42
71177;DHT22;58877;51.992;4.504;2023-04-24T12:50:59;10.49;72.92
71177;DHT22;58877;51.992;4.504;2023-04-24T12:53:28;10.50;73.02
71177;DHT22;58877;51.992;4.504;2023-04-24T12:55:55;10.40;73.06
71177;DHT22;58877;51.992;4.504;2023-04-24T12:58:22;10.23;70.86
71177;DHT22;58877;51.992;4.504;2023-04-24T13:00:48;10.26;71.87
71177;DHT22;58877;51.992;4.504;2023-04-24T13:03:14;10.46;73.15
71177;DHT22;58877;51.992;4.504;2023-04-24T13:05:41;10.24;67.22
71177;DHT22;58877;51.992;4.504;2023-04-24T13:08:13;10.03;66.90
71177;DHT22;58877;51.992;4.504;2023-04-24T13:10:39;10.20;69.43
71177;DHT22;58877;51.992;4.504;2023-04-24T13:13:08;10.29;70.72
71177;DHT22;58877;51.992;4.504;2023-04-24T13:15:37;10.40;69.94
71177;DHT22;58877;51.992;4.504;2023-04-24T13:18:06;10.37;70.23
71177;DHT22;58877;51.992;4.504;2023-04-24T13:20:31;10.16;70.77
71177;DHT22;58877;51.992;4.504;2023-04-24T13:22:58;10.14;71.91
71177;DHT22;58877;51.992;4.504;2023-04-24T13:25:27;9.99;71.97
71177;DHT22;58877;51.992;4.504;2023-04-24T13:27:56;10.05;70.74
71177;DHT22;58877;51.992;4.504;2023-04-24T13:30:22;10.14;70.47
71177;DHT22;58877;51.992;4.504;2023-04-24T13:32:48;10.37;69.61
71177;DHT22;58877;51.992;4.504;2023-04-24T13:35:14;10.72;68.93
71177;DHT22;58877;51.992;4.504;2023-04-24T13:37:39;10.65;67.64
71177;DHT22;58877;51.992;4.504;2023-04-24T13:40:10;10.77;68.75
71177;DHT22;58877;51.992;4.504;2023-04-24T13:42:40;10.53;66.09
71177;DHT22;58877;51.992;4.504;2023-04-24T13:45:06;10.63;68.11
71177;DHT22;58877;51.992;4.504;2023-04-24T13:47:31;10.59;67.97
71177;DHT22;58877;51.992;4.504;2023-04-24T13:49:57;10.87;65.44
71177;DHT22;58877;51.992;4.504;2023-04-24T13:52:22;10.80;67.24
71177;DHT22;58877;51.992;4.504;2023-04-24T13:54:48;10.87;65.24
71177;DHT22;58877;51.992;4.504;2023-04-24T13:57:14;10.97;64.24
71177;DHT22;58877;51.992;4.504;2023-04-24T13:59:39;11.18;65.47
71177;DHT22;58877;51.992;4.504;2023-04-24T14:02:05;10.95;65.34
71177;DHT22;58877;51.992;4.504;2023-04-24T14:04:31;10.72;65.16
71177;DHT22;58877;51.992;4.504;2023-04-24T14:06:58;10.70;66.59
71177;DHT22;58877;51.992;4.504;2023-04-24T14:09:24;10.54;67.40
71177;DHT22;58877;51.992;4.504;2023-04-24T14:11:51;10.44;67.93
71177;DHT22;58877;51.992;4.504;2023-04-24T14:14:17;10.23;70.05
71177;DHT22;58877;51.992;4.504;2023-04-24T14:16:42;10.20;70.61
71177;DHT22;58877;51.992;4.504;2023-04-24T14:19:10;10.19;70.92
71177;DHT22;58877;51.992;4.504;2023-04-24T14:21:36;9.65;71.37
71177;DHT22;58877;51.992;4.504;2023-04-24T14:24:02;9.81;72.52
71177;DHT22;58877;51.992;4.504;2023-04-24T14:26:28;9.86;70.07
71177;DHT22;58877;51.992;4.504;2023-04-24T14:28:56;9.92;69.23
71177;DHT22;58877;51.992;4.504;2023-04-24T14:31:24;10.06;68.92
71177;DHT22;58877;51.992;4.504;2023-04-24T14:33:49;10.17;68.39
71177;DHT22;58877;51.992;4.504;2023-04-24T14:36:15;10.47;68.27
71177;DHT22;58877;51.992;4.504;2023-04-24T14:38:40;10.59;68.37
71177;DHT22;58877;51.992;4.504;2023-04-24T14:41:06;10.60;69.12
71177;DHT22;58877;51.992;4.504;2023-04-24T14:43:36;10.65;69.79
71177;DHT22;58877;51.992;4.504;2023-04-24T14:46:04;10.53;69.41
71177;DHT22;58877;51.992;4.504;2023-04-24T14:48:30;10.61;68.98
71177;DHT22;58877;51.992;4.504;2023-04-24T14:50:55;10.47;69.19
71177;DHT22;58877;51.992;4.504;2023-04-24T14:53:21;10.75;70.64
71177;DHT22;58877;51.992;4.504;2023-04-24T14:55:47;10.60;69.20
71177;DHT22;58877;51.992;4.504;2023-04-24T14:58:12;10.37;68.63
71177;DHT22;58877;51.992;4.504;2023-04-24T15:00:40;10.44;68.65
71177;DHT22;58877;51.992;4.504;2023-04-24T15:03:06;10.61;67.84
71177;DHT22;58877;51.992;4.504;2023-04-24T15:05:51;10.16;65.39
71177;DHT22;58877;51.992;4.504;2023-04-24T15:08:20;10.14;65.48
71177;DHT22;58877;51.992;4.504;2023-04-24T15:11:04;10.13;65.93
71177;DHT22;58877;51.992;4.504;2023-04-24T15:13:30;10.40;66.46
71177;DHT22;58877;51.992;4.504;2023-04-24T15:15:56;10.47;66.50
71177;DHT22;58877;51.992;4.504;2023-04-24T15:18:25;10.43;67.37
71177;DHT22;58877;51.992;4.504;2023-04-24T15:20:50;10.06;68.21
71177;DHT22;58877;51.992;4.504;2023-04-24T15:23:16;10.13;69.20
71177;DHT22;58877;51.992;4.504;2023-04-24T15:25:42;10.14;69.02
71177;DHT22;58877;51.992;4.504;2023-04-24T15:28:09;10.00;70.77
71177;DHT22;58877;51.992;4.504;2023-04-24T15:30:36;10.07;72.40
71177;DHT22;58877;51.992;4.504;2023-04-24T15:33:01;11.01;70.42
71177;DHT22;58877;51.992;4.504;2023-04-24T15:35:30;11.69;66.33
71177;DHT22;58877;51.992;4.504;2023-04-24T15:37:55;11.51;66.79
71177;DHT22;58877;51.992;4.504;2023-04-24T15:40:24;11.24;66.31
71177;DHT22;58877;51.992;4.504;2023-04-24T15:42:50;11.87;62.77
71177;DHT22;58877;51.992;4.504;2023-04-24T15:45:15;11.85;62.21
71177;DHT22;58877;51.992;4.504;2023-04-24T15:47:44;12.06;60.65
71177;DHT22;58877;51.992;4.504;2023-04-24T15:50:14;10.61;63.88
71177;DHT22;58877;51.992;4.504;2023-04-24T15:52:42;10.19;66.04
71177;DHT22;58877;51.992;4.504;2023-04-24T15:55:08;10.13;66.74
71177;DHT22;58877;51.992;4.504;2023-04-24T15:57:34;9.82;67.18
71177;DHT22;58877;51.992;4.504;2023-04-24T16:00:00;10.26;66.25
71177;DHT22;58877;51.992;4.504;2023-04-24T16:02:25;11.02;65.71
71177;DHT22;58877;51.992;4.504;2023-04-24T16:04:51;11.00;66.89